sensor_id;sensor_type;location;lat;lon;timestamp;P1;durP1;ratioP1;P2;durP2;ratioP2
840;SDS011;406;48.566;13.450;2023-07-29T00:02:17;3.77;;;2.50;;
840;SDS011;406;48.566;13.450;2023-07-29T00:04:44;6.93;;;3.07;;
840;SDS011;406;48.566;13.450;2023-07-29T00:07:11;3.67;;;3.30;;
840;SDS011;406;48.566;13.450;2023-07-29T00:09:37;3.60;;;3.30;;
840;SDS011;406;48.566;13.450;2023-07-29T00:12:04;3.53;;;2.93;;
840;SDS011;406;48.566;13.450;2023-07-29T00:14:31;3.07;;;2.20;;
840;SDS011;406;48.566;13.450;2023-07-29T00:16:57;6.07;;;3.50;;
840;SDS011;406;48.566;13.450;2023-07-29T00:19:24;4.60;;;2.93;;
840;SDS011;406;48.566;13.450;2023-07-29T00:21:50;2.47;;;2.20;;
840;SDS011;406;48.566;13.450;2023-07-29T00:24:17;3.43;;;2.90;;
840;SDS011;406;48.566;13.450;2023-07-29T00:26:43;12.37;;;2.80;;
840;SDS011;406;48.566;13.450;2023-07-29T00:29:10;3.17;;;2.10;;
840;SDS011;406;48.566;13.450;2023-07-29T00:31:36;2.60;;;1.77;;
840;SDS011;406;48.566;13.450;2023-07-29T00:34:03;2.33;;;1.77;;
840;SDS011;406;48.566;13.450;2023-07-29T00:36:29;3.43;;;2.00;;
840;SDS011;406;48.566;13.450;2023-07-29T00:38:56;3.37;;;2.00;;
840;SDS011;406;48.566;13.450;2023-07-29T00:41:23;2.93;;;2.40;;
840;SDS011;406;48.566;13.450;2023-07-29T00:43:52;3.37;;;2.37;;
840;SDS011;406;48.566;13.450;2023-07-29T00:46:18;3.67;;;2.17;;
840;SDS011;406;48.566;13.450;2023-07-29T00:48:46;3.23;;;2.60;;
840;SDS011;406;48.566;13.450;2023-07-29T00:51:13;2.77;;;2.10;;
840;SDS011;406;48.566;13.450;2023-07-29T00:53:39;3.40;;;2.20;;
840;SDS011;406;48.566;13.450;2023-07-29T00:56:06;3.40;;;1.73;;
840;SDS011;406;48.566;13.450;2023-07-29T00:58:32;2.27;;;1.97;;
840;SDS011;406;48.566;13.450;2023-07-29T01:00:59;2.03;;;1.70;;
840;SDS011;406;48.566;13.450;2023-07-29T01:03:27;3.67;;;3.03;;
840;SDS011;406;48.566;13.450;2023-07-29T01:06:14;2.83;;;1.60;;
840;SDS011;406;48.566;13.450;2023-07-29T01:08:56;3.13;;;1.90;;
840;SDS011;406;48.566;13.450;2023-07-29T01:14:14;2.60;;;1.60;;
840;SDS011;406;48.566;13.450;2023-07-29T01:16:59;3.53;;;2.13;;
840;SDS011;406;48.566;13.450;2023-07-29T01:19:35;2.77;;;2.20;;
840;SDS011;406;48.566;13.450;2023-07-29T01:22:05;3.20;;;2.13;;
840;SDS011;406;48.566;13.450;2023-07-29T01:24:33;2.47;;;1.83;;
840;SDS011;406;48.566;13.450;2023-07-29T01:27:00;3.90;;;2.47;;
840;SDS011;406;48.566;13.450;2023-07-29T01:29:27;3.93;;;2.47;;
840;SDS011;406;48.566;13.450;2023-07-29T01:31:54;3.10;;;2.33;;
840;SDS011;406;48.566;13.450;2023-07-29T01:34:24;5.20;;;2.10;;
840;SDS011;406;48.566;13.450;2023-07-29T01:36:52;3.53;;;1.80;;
840;SDS011;406;48.566;13.450;2023-07-29T01:39:20;4.57;;;2.00;;
840;SDS011;406;48.566;13.450;2023-07-29T01:41:49;2.10;;;1.73;;
840;SDS011;406;48.566;13.450;2023-07-29T01:44:17;2.70;;;1.77;;
840;SDS011;406;48.566;13.450;2023-07-29T01:46:44;3.70;;;2.30;;
840;SDS011;406;48.566;13.450;2023-07-29T01:49:11;2.47;;;2.07;;
840;SDS011;406;48.566;13.450;2023-07-29T01:51:37;4.73;;;2.50;;
840;SDS011;406;48.566;13.450;2023-07-29T01:54:04;2.50;;;1.90;;
840;SDS011;406;48.566;13.450;2023-07-29T01:56:30;6.43;;;3.13;;
840;SDS011;406;48.566;13.450;2023-07-29T01:58:57;2.80;;;2.20;;
840;SDS011;406;48.566;13.450;2023-07-29T02:01:24;3.20;;;1.90;;
840;SDS011;406;48.566;13.450;2023-07-29T02:03:51;3.00;;;2.60;;
840;SDS011;406;48.566;13.450;2023-07-29T02:06:22;3.53;;;2.30;;
840;SDS011;406;48.566;13.450;2023-07-29T02:08:48;3.97;;;2.13;;
840;SDS011;406;48.566;13.450;2023-07-29T02:11:15;3.10;;;2.60;;
840;SDS011;406;48.566;13.450;2023-07-29T02:13:41;4.30;;;2.40;;
840;SDS011;406;48.566;13.450;2023-07-29T02:16:08;5.50;;;2.70;;
840;SDS011;406;48.566;13.450;2023-07-29T02:18:34;3.17;;;2.50;;
840;SDS011;406;48.566;13.450;2023-07-29T02:21:01;3.03;;;2.40;;
840;SDS011;406;48.566;13.450;2023-07-29T02:23:28;3.53;;;2.20;;
840;SDS011;406;48.566;13.450;2023-07-29T02:25:54;5.17;;;3.20;;
840;SDS011;406;48.566;13.450;2023-07-29T02:28:21;3.13;;;2.70;;
840;SDS011;406;48.566;13.450;2023-07-29T02:30:48;3.13;;;2.23;;
840;SDS011;406;48.566;13.450;2023-07-29T02:33:42;3.03;;;2.63;;
840;SDS011;406;48.566;13.450;2023-07-29T02:36:11;6.80;;;2.57;;
840;SDS011;406;48.566;13.450;2023-07-29T02:38:38;6.63;;;2.87;;
840;SDS011;406;48.566;13.450;2023-07-29T02:41:05;4.33;;;2.73;;
840;SDS011;406;48.566;13.450;2023-07-29T02:43:32;3.03;;;2.50;;
840;SDS011;406;48.566;13.450;2023-07-29T02:45:58;3.27;;;2.97;;
840;SDS011;406;48.566;13.450;2023-07-29T02:48:25;4.83;;;2.77;;
840;SDS011;406;48.566;13.450;2023-07-29T02:50:52;4.80;;;2.97;;
840;SDS011;406;48.566;13.450;2023-07-29T02:53:18;4.50;;;3.07;;
840;SDS011;406;48.566;13.450;2023-07-29T02:55:45;4.50;;;2.83;;
840;SDS011;406;48.566;13.450;2023-07-29T02:58:11;3.47;;;2.80;;
840;SDS011;406;48.566;13.450;2023-07-29T03:00:38;3.70;;;2.70;;
840;SDS011;406;48.566;13.450;2023-07-29T03:03:08;4.13;;;2.67;;
840;SDS011;406;48.566;13.450;2023-07-29T03:05:35;3.30;;;2.60;;
840;SDS011;406;48.566;13.450;2023-07-29T03:08:01;4.23;;;3.10;;
840;SDS011;406;48.566;13.450;2023-07-29T03:10:28;3.43;;;2.90;;
840;SDS011;406;48.566;13.450;2023-07-29T03:12:54;4.30;;;3.70;;
840;SDS011;406;48.566;13.450;2023-07-29T03:15:24;4.43;;;3.13;;
840;SDS011;406;48.566;13.450;2023-07-29T03:17:51;4.43;;;2.73;;
840;SDS011;406;48.566;13.450;2023-07-29T03:20:19;5.23;;;3.40;;
840;SDS011;406;48.566;13.450;2023-07-29T03:22:46;3.40;;;2.70;;
840;SDS011;406;48.566;13.450;2023-07-29T03:25:13;3.50;;;3.20;;
840;SDS011;406;48.566;13.450;2023-07-29T03:27:39;3.63;;;2.90;;
840;SDS011;406;48.566;13.450;2023-07-29T03:30:06;3.40;;;2.60;;
840;SDS011;406;48.566;13.450;2023-07-29T03:32:33;3.80;;;3.40;;
840;SDS011;406;48.566;13.450;2023-07-29T03:35:00;3.20;;;2.90;;
840;SDS011;406;48.566;13.450;2023-07-29T03:37:26;4.80;;;2.90;;
840;SDS011;406;48.566;13.450;2023-07-29T03:39:53;4.10;;;3.43;;
840;SDS011;406;48.566;13.450;2023-07-29T03:42:19;5.47;;;2.93;;
840;SDS011;406;48.566;13.450;2023-07-29T03:44:46;5.33;;;3.00;;
840;SDS011;406;48.566;13.450;2023-07-29T03:47:12;3.70;;;3.10;;
840;SDS011;406;48.566;13.450;2023-07-29T03:49:41;6.40;;;2.67;;
840;SDS011;406;48.566;13.450;2023-07-29T03:52:08;3.33;;;2.43;;
840;SDS011;406;48.566;13.450;2023-07-29T03:54:34;3.13;;;2.83;;
840;SDS011;406;48.566;13.450;2023-07-29T03:57:01;4.10;;;3.23;;
840;SDS011;406;48.566;13.450;2023-07-29T03:59:27;4.10;;;3.43;;
840;SDS011;406;48.566;13.450;2023-07-29T04:01:54;3.43;;;2.67;;
840;SDS011;406;48.566;13.450;2023-07-29T04:04:21;6.10;;;4.27;;
840;SDS011;406;48.566;13.450;2023-07-29T04:06:47;4.40;;;3.93;;
840;SDS011;406;48.566;13.450;2023-07-29T04:09:14;3.93;;;3.50;;
840;SDS011;406;48.566;13.450;2023-07-29T04:11:40;4.10;;;3.40;;
840;SDS011;406;48.566;13.450;2023-07-29T04:14:07;4.17;;;3.30;;
840;SDS011;406;48.566;13.450;2023-07-29T04:16:34;4.70;;;3.23;;
840;SDS011;406;48.566;13.450;2023-07-29T04:19:01;7.57;;;3.70;;
840;SDS011;406;48.566;13.450;2023-07-29T04:21:27;3.87;;;3.30;;
840;SDS011;406;48.566;13.450;2023-07-29T04:23:54;4.40;;;3.70;;
840;SDS011;406;48.566;13.450;2023-07-29T04:26:20;4.83;;;3.93;;
840;SDS011;406;48.566;13.450;2023-07-29T04:28:47;5.03;;;3.17;;
840;SDS011;406;48.566;13.450;2023-07-29T04:31:13;6.10;;;3.80;;
840;SDS011;406;48.566;13.450;2023-07-29T04:33:40;4.93;;;4.00;;
840;SDS011;406;48.566;13.450;2023-07-29T04:36:06;3.83;;;3.20;;
840;SDS011;406;48.566;13.450;2023-07-29T04:38:33;4.03;;;3.43;;
840;SDS011;406;48.566;13.450;2023-07-29T04:41:00;4.80;;;3.30;;
840;SDS011;406;48.566;13.450;2023-07-29T04:43:30;4.17;;;3.67;;
840;SDS011;406;48.566;13.450;2023-07-29T04:45:57;4.40;;;3.83;;
840;SDS011;406;48.566;13.450;2023-07-29T04:48:23;4.23;;;3.07;;
840;SDS011;406;48.566;13.450;2023-07-29T04:50:50;4.90;;;3.43;;
840;SDS011;406;48.566;13.450;2023-07-29T04:53:16;8.00;;;3.40;;
840;SDS011;406;48.566;13.450;2023-07-29T04:55:43;4.67;;;3.17;;
840;SDS011;406;48.566;13.450;2023-07-29T04:58:10;4.00;;;3.10;;
840;SDS011;406;48.566;13.450;2023-07-29T05:00:36;6.53;;;3.10;;
840;SDS011;406;48.566;13.450;2023-07-29T05:03:03;3.87;;;2.87;;
840;SDS011;406;48.566;13.450;2023-07-29T05:05:29;6.10;;;3.20;;
840;SDS011;406;48.566;13.450;2023-07-29T05:07:56;4.23;;;3.43;;
840;SDS011;406;48.566;13.450;2023-07-29T05:10:23;4.40;;;3.90;;
840;SDS011;406;48.566;13.450;2023-07-29T05:12:49;6.10;;;3.90;;
840;SDS011;406;48.566;13.450;2023-07-29T05:15:16;3.87;;;3.57;;
840;SDS011;406;48.566;13.450;2023-07-29T05:17:43;4.50;;;3.97;;
840;SDS011;406;48.566;13.450;2023-07-29T05:20:09;7.47;;;4.10;;
840;SDS011;406;48.566;13.450;2023-07-29T05:22:36;4.93;;;3.47;;
840;SDS011;406;48.566;13.450;2023-07-29T05:25:03;5.30;;;4.20;;
840;SDS011;406;48.566;13.450;2023-07-29T05:27:29;5.57;;;3.90;;
840;SDS011;406;48.566;13.450;2023-07-29T05:29:56;5.13;;;4.20;;
840;SDS011;406;48.566;13.450;2023-07-29T05:32:23;7.00;;;4.10;;
840;SDS011;406;48.566;13.450;2023-07-29T05:34:49;4.93;;;4.40;;
840;SDS011;406;48.566;13.450;2023-07-29T05:37:23;6.27;;;3.73;;
840;SDS011;406;48.566;13.450;2023-07-29T05:39:49;6.23;;;3.43;;
840;SDS011;406;48.566;13.450;2023-07-29T05:42:16;7.50;;;3.90;;
840;SDS011;406;48.566;13.450;2023-07-29T05:44:42;4.53;;;3.40;;
840;SDS011;406;48.566;13.450;2023-07-29T05:47:09;3.90;;;3.07;;
840;SDS011;406;48.566;13.450;2023-07-29T05:49:35;4.03;;;3.00;;
840;SDS011;406;48.566;13.450;2023-07-29T05:52:02;4.30;;;3.70;;
840;SDS011;406;48.566;13.450;2023-07-29T05:54:28;4.60;;;3.50;;
840;SDS011;406;48.566;13.450;2023-07-29T05:56:55;5.70;;;3.70;;
840;SDS011;406;48.566;13.450;2023-07-29T05:59:21;4.93;;;3.70;;
840;SDS011;406;48.566;13.450;2023-07-29T06:01:49;7.10;;;3.87;;
840;SDS011;406;48.566;13.450;2023-07-29T06:04:17;4.47;;;3.87;;
840;SDS011;406;48.566;13.450;2023-07-29T06:06:43;4.37;;;3.97;;
840;SDS011;406;48.566;13.450;2023-07-29T06:09:10;6.47;;;4.23;;
840;SDS011;406;48.566;13.450;2023-07-29T06:11:36;4.83;;;3.70;;
840;SDS011;406;48.566;13.450;2023-07-29T06:14:03;6.23;;;3.60;;
840;SDS011;406;48.566;13.450;2023-07-29T06:16:29;4.17;;;3.40;;
840;SDS011;406;48.566;13.450;2023-07-29T06:18:56;4.43;;;3.50;;
840;SDS011;406;48.566;13.450;2023-07-29T06:21:23;4.03;;;2.83;;
840;SDS011;406;48.566;13.450;2023-07-29T06:23:49;3.50;;;2.77;;
840;SDS011;406;48.566;13.450;2023-07-29T06:26:16;4.13;;;3.60;;
840;SDS011;406;48.566;13.450;2023-07-29T06:28:43;4.43;;;4.03;;
840;SDS011;406;48.566;13.450;2023-07-29T06:31:09;4.70;;;3.17;;
840;SDS011;406;48.566;13.450;2023-07-29T06:33:36;3.33;;;3.00;;
840;SDS011;406;48.566;13.450;2023-07-29T06:36:02;4.33;;;2.93;;
840;SDS011;406;48.566;13.450;2023-07-29T06:38:29;4.27;;;2.97;;
840;SDS011;406;48.566;13.450;2023-07-29T06:40:56;3.37;;;2.77;;
840;SDS011;406;48.566;13.450;2023-07-29T06:43:22;4.17;;;2.63;;
840;SDS011;406;48.566;13.450;2023-07-29T06:45:48;4.67;;;2.90;;
840;SDS011;406;48.566;13.450;2023-07-29T06:48:15;3.53;;;3.07;;
840;SDS011;406;48.566;13.450;2023-07-29T06:50:42;3.83;;;3.33;;
840;SDS011;406;48.566;13.450;2023-07-29T06:53:08;3.47;;;2.57;;
840;SDS011;406;48.566;13.450;2023-07-29T06:55:35;4.10;;;3.33;;
840;SDS011;406;48.566;13.450;2023-07-29T06:58:02;3.50;;;2.93;;
840;SDS011;406;48.566;13.450;2023-07-29T07:00:28;4.80;;;2.47;;
840;SDS011;406;48.566;13.450;2023-07-29T07:02:55;2.50;;;2.27;;
840;SDS011;406;48.566;13.450;2023-07-29T07:05:21;3.23;;;2.40;;
840;SDS011;406;48.566;13.450;2023-07-29T07:07:48;7.70;;;3.30;;
840;SDS011;406;48.566;13.450;2023-07-29T07:10:14;3.30;;;2.60;;
840;SDS011;406;48.566;13.450;2023-07-29T07:12:41;5.20;;;2.70;;
840;SDS011;406;48.566;13.450;2023-07-29T07:15:08;2.97;;;2.43;;
840;SDS011;406;48.566;13.450;2023-07-29T07:17:34;2.83;;;2.27;;
840;SDS011;406;48.566;13.450;2023-07-29T07:20:01;2.93;;;2.40;;
840;SDS011;406;48.566;13.450;2023-07-29T07:22:27;3.00;;;2.00;;
840;SDS011;406;48.566;13.450;2023-07-29T07:24:54;4.23;;;2.47;;
840;SDS011;406;48.566;13.450;2023-07-29T07:27:20;3.60;;;2.80;;
840;SDS011;406;48.566;13.450;2023-07-29T07:29:47;4.00;;;2.43;;
840;SDS011;406;48.566;13.450;2023-07-29T07:32:14;3.73;;;2.17;;
840;SDS011;406;48.566;13.450;2023-07-29T07:34:40;2.90;;;1.63;;
840;SDS011;406;48.566;13.450;2023-07-29T07:37:07;2.50;;;1.87;;
840;SDS011;406;48.566;13.450;2023-07-29T07:39:33;3.13;;;2.23;;
840;SDS011;406;48.566;13.450;2023-07-29T07:42:00;3.30;;;2.17;;
840;SDS011;406;48.566;13.450;2023-07-29T07:44:26;3.03;;;2.07;;
840;SDS011;406;48.566;13.450;2023-07-29T07:46:53;2.43;;;2.10;;
840;SDS011;406;48.566;13.450;2023-07-29T07:49:22;3.50;;;2.33;;
840;SDS011;406;48.566;13.450;2023-07-29T07:51:49;4.27;;;1.70;;
840;SDS011;406;48.566;13.450;2023-07-29T07:54:16;2.23;;;1.90;;
840;SDS011;406;48.566;13.450;2023-07-29T07:56:43;2.73;;;1.87;;
840;SDS011;406;48.566;13.450;2023-07-29T07:59:09;3.07;;;2.00;;
840;SDS011;406;48.566;13.450;2023-07-29T08:01:36;2.10;;;1.77;;
840;SDS011;406;48.566;13.450;2023-07-29T08:04:03;2.53;;;1.60;;
840;SDS011;406;48.566;13.450;2023-07-29T08:06:31;2.30;;;1.60;;
840;SDS011;406;48.566;13.450;2023-07-29T08:08:58;2.60;;;2.00;;
840;SDS011;406;48.566;13.450;2023-07-29T08:11:25;2.37;;;1.40;;
840;SDS011;406;48.566;13.450;2023-07-29T08:13:52;2.50;;;1.70;;
840;SDS011;406;48.566;13.450;2023-07-29T08:16:18;2.03;;;1.70;;
840;SDS011;406;48.566;13.450;2023-07-29T08:18:45;1.80;;;1.60;;
840;SDS011;406;48.566;13.450;2023-07-29T08:21:11;1.97;;;1.60;;
840;SDS011;406;48.566;13.450;2023-07-29T08:23:38;2.30;;;1.33;;
840;SDS011;406;48.566;13.450;2023-07-29T08:26:05;3.20;;;1.90;;
840;SDS011;406;48.566;13.450;2023-07-29T08:28:35;2.00;;;1.50;;
840;SDS011;406;48.566;13.450;2023-07-29T08:31:02;2.40;;;1.63;;
840;SDS011;406;48.566;13.450;2023-07-29T08:33:29;3.40;;;2.00;;
840;SDS011;406;48.566;13.450;2023-07-29T08:35:55;2.20;;;1.80;;
840;SDS011;406;48.566;13.450;2023-07-29T08:38:22;6.90;;;2.57;;
840;SDS011;406;48.566;13.450;2023-07-29T08:43:36;2.10;;;1.63;;
840;SDS011;406;48.566;13.450;2023-07-29T08:46:04;2.03;;;1.83;;
840;SDS011;406;48.566;13.450;2023-07-29T08:48:36;3.00;;;1.50;;
840;SDS011;406;48.566;13.450;2023-07-29T08:51:08;3.73;;;2.00;;
840;SDS011;406;48.566;13.450;2023-07-29T08:53:35;2.93;;;1.50;;
840;SDS011;406;48.566;13.450;2023-07-29T08:56:02;2.07;;;1.63;;
840;SDS011;406;48.566;13.450;2023-07-29T08:58:29;2.33;;;1.60;;
840;SDS011;406;48.566;13.450;2023-07-29T09:00:55;4.47;;;1.90;;
840;SDS011;406;48.566;13.450;2023-07-29T09:03:22;3.53;;;2.07;;
840;SDS011;406;48.566;13.450;2023-07-29T09:05:49;3.17;;;2.00;;
840;SDS011;406;48.566;13.450;2023-07-29T09:08:16;4.70;;;2.70;;
840;SDS011;406;48.566;13.450;2023-07-29T09:10:43;3.30;;;2.30;;
840;SDS011;406;48.566;13.450;2023-07-29T09:13:10;3.50;;;2.20;;
840;SDS011;406;48.566;13.450;2023-07-29T09:15:36;6.67;;;2.27;;
840;SDS011;406;48.566;13.450;2023-07-29T09:18:15;3.87;;;2.40;;
840;SDS011;406;48.566;13.450;2023-07-29T09:20:42;5.93;;;2.57;;
840;SDS011;406;48.566;13.450;2023-07-29T09:23:09;7.33;;;2.70;;
840;SDS011;406;48.566;13.450;2023-07-29T09:25:37;3.20;;;2.73;;
840;SDS011;406;48.566;13.450;2023-07-29T09:28:08;4.97;;;3.20;;
840;SDS011;406;48.566;13.450;2023-07-29T09:30:37;5.60;;;3.00;;
840;SDS011;406;48.566;13.450;2023-07-29T09:33:07;3.00;;;2.70;;
840;SDS011;406;48.566;13.450;2023-07-29T09:35:34;3.50;;;2.83;;
840;SDS011;406;48.566;13.450;2023-07-29T09:38:04;2.70;;;2.23;;
840;SDS011;406;48.566;13.450;2023-07-29T09:40:38;4.60;;;3.50;;
840;SDS011;406;48.566;13.450;2023-07-29T09:43:06;5.40;;;3.00;;
840;SDS011;406;48.566;13.450;2023-07-29T09:45:34;7.20;;;4.10;;
840;SDS011;406;48.566;13.450;2023-07-29T09:48:02;3.50;;;2.93;;
840;SDS011;406;48.566;13.450;2023-07-29T09:50:29;2.90;;;2.70;;
840;SDS011;406;48.566;13.450;2023-07-29T09:52:56;7.23;;;3.07;;
840;SDS011;406;48.566;13.450;2023-07-29T09:55:26;4.40;;;3.30;;
840;SDS011;406;48.566;13.450;2023-07-29T09:57:56;3.47;;;3.17;;
840;SDS011;406;48.566;13.450;2023-07-29T10:00:29;6.93;;;3.17;;
840;SDS011;406;48.566;13.450;2023-07-29T10:02:57;3.80;;;3.00;;
840;SDS011;406;48.566;13.450;2023-07-29T10:05:28;3.50;;;2.37;;
840;SDS011;406;48.566;13.450;2023-07-29T10:07:55;4.07;;;2.47;;
840;SDS011;406;48.566;13.450;2023-07-29T10:10:22;2.90;;;2.20;;
840;SDS011;406;48.566;13.450;2023-07-29T10:12:49;4.90;;;2.40;;
840;SDS011;406;48.566;13.450;2023-07-29T10:15:16;3.00;;;2.23;;
840;SDS011;406;48.566;13.450;2023-07-29T10:17:43;4.27;;;2.70;;
840;SDS011;406;48.566;13.450;2023-07-29T10:20:15;3.63;;;2.37;;
840;SDS011;406;48.566;13.450;2023-07-29T10:22:42;3.83;;;2.77;;
840;SDS011;406;48.566;13.450;2023-07-29T10:25:16;3.63;;;1.83;;
840;SDS011;406;48.566;13.450;2023-07-29T10:27:55;2.53;;;2.10;;
840;SDS011;406;48.566;13.450;2023-07-29T10:30:24;2.17;;;1.60;;
840;SDS011;406;48.566;13.450;2023-07-29T10:32:51;2.70;;;1.93;;
840;SDS011;406;48.566;13.450;2023-07-29T10:35:18;4.27;;;2.00;;
840;SDS011;406;48.566;13.450;2023-07-29T10:37:45;4.23;;;2.53;;
840;SDS011;406;48.566;13.450;2023-07-29T10:40:12;4.37;;;2.50;;
840;SDS011;406;48.566;13.450;2023-07-29T10:42:41;4.80;;;2.10;;
840;SDS011;406;48.566;13.450;2023-07-29T10:45:25;3.10;;;2.60;;
840;SDS011;406;48.566;13.450;2023-07-29T10:47:52;4.40;;;2.30;;
840;SDS011;406;48.566;13.450;2023-07-29T10:50:19;2.33;;;2.13;;
840;SDS011;406;48.566;13.450;2023-07-29T10:52:50;4.10;;;2.20;;
840;SDS011;406;48.566;13.450;2023-07-29T10:55:25;4.33;;;1.70;;
840;SDS011;406;48.566;13.450;2023-07-29T10:58:13;3.63;;;2.20;;
840;SDS011;406;48.566;13.450;2023-07-29T11:00:41;3.63;;;2.20;;
840;SDS011;406;48.566;13.450;2023-07-29T11:03:09;2.50;;;1.93;;
840;SDS011;406;48.566;13.450;2023-07-29T11:05:43;1.90;;;1.47;;
840;SDS011;406;48.566;13.450;2023-07-29T11:11:01;2.57;;;2.20;;
840;SDS011;406;48.566;13.450;2023-07-29T11:13:30;2.83;;;2.13;;
840;SDS011;406;48.566;13.450;2023-07-29T11:15:57;2.40;;;2.20;;
840;SDS011;406;48.566;13.450;2023-07-29T11:18:26;3.77;;;1.93;;
840;SDS011;406;48.566;13.450;2023-07-29T11:21:00;2.50;;;1.37;;
840;SDS011;406;48.566;13.450;2023-07-29T11:23:29;3.37;;;2.30;;
840;SDS011;406;48.566;13.450;2023-07-29T11:25:57;4.63;;;2.30;;
840;SDS011;406;48.566;13.450;2023-07-29T11:28:25;3.20;;;2.90;;
840;SDS011;406;48.566;13.450;2023-07-29T11:30:53;3.27;;;2.40;;
840;SDS011;406;48.566;13.450;2023-07-29T11:33:21;3.77;;;2.33;;
840;SDS011;406;48.566;13.450;2023-07-29T11:35:49;3.60;;;1.90;;
840;SDS011;406;48.566;13.450;2023-07-29T11:38:16;3.00;;;1.70;;
840;SDS011;406;48.566;13.450;2023-07-29T11:40:53;2.47;;;1.50;;
840;SDS011;406;48.566;13.450;2023-07-29T11:43:20;3.50;;;2.00;;
840;SDS011;406;48.566;13.450;2023-07-29T11:45:47;2.43;;;1.93;;
840;SDS011;406;48.566;13.450;2023-07-29T11:48:18;1.93;;;1.80;;
840;SDS011;406;48.566;13.450;2023-07-29T11:50:45;2.73;;;2.53;;
840;SDS011;406;48.566;13.450;2023-07-29T11:53:11;3.57;;;1.83;;
840;SDS011;406;48.566;13.450;2023-07-29T11:55:42;2.53;;;2.13;;
840;SDS011;406;48.566;13.450;2023-07-29T11:58:08;2.23;;;2.03;;
840;SDS011;406;48.566;13.450;2023-07-29T12:00:36;1.93;;;1.60;;
840;SDS011;406;48.566;13.450;2023-07-29T12:03:04;1.70;;;1.57;;
840;SDS011;406;48.566;13.450;2023-07-29T12:05:31;3.00;;;1.83;;
840;SDS011;406;48.566;13.450;2023-07-29T12:07:57;2.23;;;1.50;;
840;SDS011;406;48.566;13.450;2023-07-29T12:10:24;2.83;;;2.30;;
840;SDS011;406;48.566;13.450;2023-07-29T12:12:50;1.80;;;1.40;;
840;SDS011;406;48.566;13.450;2023-07-29T12:15:24;2.70;;;1.60;;
840;SDS011;406;48.566;13.450;2023-07-29T12:17:55;2.33;;;1.70;;
840;SDS011;406;48.566;13.450;2023-07-29T12:20:23;2.00;;;1.47;;
840;SDS011;406;48.566;13.450;2023-07-29T12:22:57;1.90;;;1.30;;
840;SDS011;406;48.566;13.450;2023-07-29T12:25:28;2.03;;;1.60;;
840;SDS011;406;48.566;13.450;2023-07-29T12:27:55;3.30;;;1.60;;
840;SDS011;406;48.566;13.450;2023-07-29T12:30:22;1.90;;;1.50;;
840;SDS011;406;48.566;13.450;2023-07-29T12:32:49;3.10;;;2.37;;
840;SDS011;406;48.566;13.450;2023-07-29T12:35:16;2.03;;;1.80;;
840;SDS011;406;48.566;13.450;2023-07-29T12:37:42;3.60;;;2.20;;
840;SDS011;406;48.566;13.450;2023-07-29T12:40:20;2.80;;;2.07;;
840;SDS011;406;48.566;13.450;2023-07-29T12:42:48;1.87;;;1.60;;
840;SDS011;406;48.566;13.450;2023-07-29T12:45:15;3.33;;;2.03;;
840;SDS011;406;48.566;13.450;2023-07-29T12:47:43;2.33;;;2.13;;
840;SDS011;406;48.566;13.450;2023-07-29T12:50:10;2.43;;;2.10;;
840;SDS011;406;48.566;13.450;2023-07-29T12:52:36;2.97;;;2.00;;
840;SDS011;406;48.566;13.450;2023-07-29T12:55:03;3.83;;;2.57;;
840;SDS011;406;48.566;13.450;2023-07-29T12:57:30;4.23;;;2.70;;
840;SDS011;406;48.566;13.450;2023-07-29T12:59:56;2.40;;;2.10;;
840;SDS011;406;48.566;13.450;2023-07-29T13:02:23;4.30;;;2.70;;
840;SDS011;406;48.566;13.450;2023-07-29T13:04:49;3.03;;;2.27;;
840;SDS011;406;48.566;13.450;2023-07-29T13:07:16;3.10;;;2.40;;
840;SDS011;406;48.566;13.450;2023-07-29T13:09:42;3.87;;;2.33;;
840;SDS011;406;48.566;13.450;2023-07-29T13:12:09;4.13;;;2.40;;
840;SDS011;406;48.566;13.450;2023-07-29T13:14:35;3.63;;;2.50;;
840;SDS011;406;48.566;13.450;2023-07-29T13:17:02;4.60;;;2.30;;
840;SDS011;406;48.566;13.450;2023-07-29T13:19:28;3.60;;;2.23;;
840;SDS011;406;48.566;13.450;2023-07-29T13:21:55;4.97;;;2.87;;
840;SDS011;406;48.566;13.450;2023-07-29T13:24:21;3.90;;;2.53;;
840;SDS011;406;48.566;13.450;2023-07-29T13:26:48;3.07;;;2.20;;
840;SDS011;406;48.566;13.450;2023-07-29T13:29:14;3.53;;;3.20;;
840;SDS011;406;48.566;13.450;2023-07-29T13:31:41;2.70;;;2.13;;
840;SDS011;406;48.566;13.450;2023-07-29T13:34:07;3.50;;;2.60;;
840;SDS011;406;48.566;13.450;2023-07-29T13:36:34;3.10;;;2.50;;
840;SDS011;406;48.566;13.450;2023-07-29T13:39:01;5.83;;;2.63;;
840;SDS011;406;48.566;13.450;2023-07-29T13:41:27;2.90;;;2.43;;
840;SDS011;406;48.566;13.450;2023-07-29T13:43:54;3.43;;;2.07;;
840;SDS011;406;48.566;13.450;2023-07-29T13:46:20;2.53;;;1.63;;
840;SDS011;406;48.566;13.450;2023-07-29T13:48:47;2.23;;;2.03;;
840;SDS011;406;48.566;13.450;2023-07-29T13:51:14;1.90;;;1.53;;
840;SDS011;406;48.566;13.450;2023-07-29T13:53:40;2.53;;;2.17;;
840;SDS011;406;48.566;13.450;2023-07-29T13:56:07;3.10;;;2.00;;
840;SDS011;406;48.566;13.450;2023-07-29T13:58:33;2.30;;;1.70;;
840;SDS011;406;48.566;13.450;2023-07-29T14:01:00;2.13;;;1.93;;
840;SDS011;406;48.566;13.450;2023-07-29T14:03:26;2.60;;;2.23;;
840;SDS011;406;48.566;13.450;2023-07-29T14:05:53;3.93;;;1.77;;
840;SDS011;406;48.566;13.450;2023-07-29T14:08:19;2.47;;;1.93;;
840;SDS011;406;48.566;13.450;2023-07-29T14:10:46;2.40;;;1.60;;
840;SDS011;406;48.566;13.450;2023-07-29T14:13:12;3.90;;;2.20;;
840;SDS011;406;48.566;13.450;2023-07-29T14:15:39;3.33;;;1.77;;
840;SDS011;406;48.566;13.450;2023-07-29T14:18:05;2.70;;;1.67;;
840;SDS011;406;48.566;13.450;2023-07-29T14:20:33;2.20;;;1.70;;
840;SDS011;406;48.566;13.450;2023-07-29T14:22:59;2.60;;;2.00;;
840;SDS011;406;48.566;13.450;2023-07-29T14:25:26;1.93;;;1.70;;
840;SDS011;406;48.566;13.450;2023-07-29T14:27:53;3.10;;;2.07;;
840;SDS011;406;48.566;13.450;2023-07-29T14:30:20;1.93;;;1.33;;
840;SDS011;406;48.566;13.450;2023-07-29T14:32:46;3.17;;;1.87;;
840;SDS011;406;48.566;13.450;2023-07-29T14:35:13;4.53;;;1.60;;
840;SDS011;406;48.566;13.450;2023-07-29T14:37:40;6.30;;;1.50;;
840;SDS011;406;48.566;13.450;2023-07-29T14:40:06;2.97;;;1.27;;
840;SDS011;406;48.566;13.450;2023-07-29T14:42:33;2.80;;;1.90;;
840;SDS011;406;48.566;13.450;2023-07-29T14:45:01;1.87;;;1.63;;
840;SDS011;406;48.566;13.450;2023-07-29T14:47:28;2.80;;;1.70;;
840;SDS011;406;48.566;13.450;2023-07-29T14:49:54;2.03;;;1.63;;
840;SDS011;406;48.566;13.450;2023-07-29T14:52:21;1.60;;;1.50;;
840;SDS011;406;48.566;13.450;2023-07-29T14:54:47;2.93;;;1.60;;
840;SDS011;406;48.566;13.450;2023-07-29T14:57:14;1.93;;;1.63;;
840;SDS011;406;48.566;13.450;2023-07-29T14:59:41;1.90;;;1.70;;
840;SDS011;406;48.566;13.450;2023-07-29T15:02:07;2.10;;;1.37;;
840;SDS011;406;48.566;13.450;2023-07-29T15:04:34;2.17;;;1.77;;
840;SDS011;406;48.566;13.450;2023-07-29T15:07:01;2.17;;;1.43;;
840;SDS011;406;48.566;13.450;2023-07-29T15:09:28;2.23;;;1.77;;
840;SDS011;406;48.566;13.450;2023-07-29T15:11:54;2.17;;;1.60;;
840;SDS011;406;48.566;13.450;2023-07-29T15:14:24;2.50;;;1.80;;
840;SDS011;406;48.566;13.450;2023-07-29T15:16:51;1.67;;;1.40;;
840;SDS011;406;48.566;13.450;2023-07-29T15:19:17;4.37;;;1.93;;
840;SDS011;406;48.566;13.450;2023-07-29T15:21:44;2.00;;;1.53;;
840;SDS011;406;48.566;13.450;2023-07-29T15:24:11;2.47;;;1.77;;
840;SDS011;406;48.566;13.450;2023-07-29T15:26:37;3.47;;;2.20;;
840;SDS011;406;48.566;13.450;2023-07-29T15:29:05;2.30;;;1.73;;
840;SDS011;406;48.566;13.450;2023-07-29T15:31:36;2.27;;;1.70;;
840;SDS011;406;48.566;13.450;2023-07-29T15:34:02;2.47;;;1.27;;
840;SDS011;406;48.566;13.450;2023-07-29T15:36:29;2.87;;;2.00;;
840;SDS011;406;48.566;13.450;2023-07-29T15:38:56;2.83;;;1.77;;
840;SDS011;406;48.566;13.450;2023-07-29T15:41:22;2.00;;;1.50;;